sensor_id;sensor_type;location;lat;lon;timestamp;pressure;altitude;pressure_sealevel;temperature;humidity
21300;BME280;10809;49.476;11.016;2023-03-03T00:00:08;98472.59;;;3.94;46.41
21300;BME280;10809;49.476;11.016;2023-03-03T00:02:45;98470.06;;;3.91;46.66
21300;BME280;10809;49.476;11.016;2023-03-03T00:05:18;98464.06;;;3.88;46.80
21300;BME280;10809;49.476;11.016;2023-03-03T00:07:59;98471.13;;;3.84;46.19
21300;BME280;10809;49.476;11.016;2023-03-03T00:10:29;98463.34;;;3.81;46.58
21300;BME280;10809;49.476;11.016;2023-03-03T00:13:00;98473.91;;;3.78;46.78
21300;BME280;10809;49.476;11.016;2023-03-03T00:15:30;98474.00;;;3.75;46.73
21300;BME280;10809;49.476;11.016;2023-03-03T00:18:12;98476.69;;;3.72;46.59
21300;BME280;10809;49.476;11.016;2023-03-03T00:20:49;98476.75;;;3.69;46.92
21300;BME280;10809;49.476;11.016;2023-03-03T00:23:39;98473.34;;;3.66;46.20
21300;BME280;10809;49.476;11.016;2023-03-03T00:26:21;98472.56;;;3.62;46.29
21300;BME280;10809;49.476;11.016;2023-03-03T00:28:53;98472.66;;;3.59;46.79
21300;BME280;10809;49.476;11.016;2023-03-03T00:31:34;98474.50;;;3.56;46.36
21300;BME280;10809;49.476;11.016;2023-03-03T00:34:41;98480.69;;;3.52;46.93
21300;BME280;10809;49.476;11.016;2023-03-03T00:37:28;98487.78;;;3.48;46.99
21300;BME280;10809;49.476;11.016;2023-03-03T00:40:19;98480.88;;;3.44;46.77
21300;BME280;10809;49.476;11.016;2023-03-03T00:42:53;98480.09;;;3.42;46.96
21300;BME280;10809;49.476;11.016;2023-03-03T00:45:34;98482.81;;;3.38;47.07
21300;BME280;10809;49.476;11.016;2023-03-03T00:48:28;98484.63;;;3.34;47.00
21300;BME280;10809;49.476;11.016;2023-03-03T00:53:56;98489.19;;;3.26;47.10
21300;BME280;10809;49.476;11.016;2023-03-03T00:56:27;98496.22;;;3.24;46.88
21300;BME280;10809;49.476;11.016;2023-03-03T00:58:57;98491.09;;;3.20;46.77
21300;BME280;10809;49.476;11.016;2023-03-03T01:01:30;98496.41;;;3.17;47.43
21300;BME280;10809;49.476;11.016;2023-03-03T01:04:03;98499.06;;;3.14;47.14
21300;BME280;10809;49.476;11.016;2023-03-03T01:06:34;98497.41;;;3.10;47.17
21300;BME280;10809;49.476;11.016;2023-03-03T01:09:05;98493.13;;;3.07;47.07
21300;BME280;10809;49.476;11.016;2023-03-03T01:11:37;98494.94;;;3.04;46.94
21300;BME280;10809;49.476;11.016;2023-03-03T01:14:14;98492.41;;;3.01;46.93
21300;BME280;10809;49.476;11.016;2023-03-03T01:16:44;98494.22;;;2.97;47.50
21300;BME280;10809;49.476;11.016;2023-03-03T01:19:15;98492.53;;;2.95;47.12
21300;BME280;10809;49.476;11.016;2023-03-03T01:21:45;98494.31;;;2.93;47.42
21300;BME280;10809;49.476;11.016;2023-03-03T01:24:19;98495.25;;;2.90;47.38
21300;BME280;10809;49.476;11.016;2023-03-03T01:26:53;98492.72;;;2.87;47.40
21300;BME280;10809;49.476;11.016;2023-03-03T01:29:29;98483.19;;;2.85;47.26
21300;BME280;10809;49.476;11.016;2023-03-03T01:32:09;98484.09;;;2.82;47.21
21300;BME280;10809;49.476;11.016;2023-03-03T01:34:42;98482.38;;;2.80;47.48
21300;BME280;10809;49.476;11.016;2023-03-03T01:37:13;98489.41;;;2.78;47.72
21300;BME280;10809;49.476;11.016;2023-03-03T01:39:51;98477.28;;;2.74;47.28
21300;BME280;10809;49.476;11.016;2023-03-03T01:42:21;98482.59;;;2.71;47.54
21300;BME280;10809;49.476;11.016;2023-03-03T01:45:22;98471.34;;;2.67;46.80
21300;BME280;10809;49.476;11.016;2023-03-03T01:48:03;98474.91;;;2.63;47.59
21300;BME280;10809;49.476;11.016;2023-03-03T01:50:49;98473.22;;;2.61;47.54
21300;BME280;10809;49.476;11.016;2023-03-03T01:53:25;98472.41;;;2.59;47.83
21300;BME280;10809;49.476;11.016;2023-03-03T01:55:58;98474.22;;;2.55;47.08
21300;BME280;10809;49.476;11.016;2023-03-03T01:58:39;98475.97;;;2.53;47.46
21300;BME280;10809;49.476;11.016;2023-03-03T02:01:14;98473.41;;;2.51;47.88
21300;BME280;10809;49.476;11.016;2023-03-03T02:03:47;98464.75;;;2.49;47.51
21300;BME280;10809;49.476;11.016;2023-03-03T02:06:22;98463.94;;;2.46;47.64
21300;BME280;10809;49.476;11.016;2023-03-03T02:09:26;98470.97;;;2.42;47.13
21300;BME280;10809;49.476;11.016;2023-03-03T02:12:04;98473.63;;;2.41;47.71
21300;BME280;10809;49.476;11.016;2023-03-03T02:14:35;98478.03;;;2.39;47.17
21300;BME280;10809;49.476;11.016;2023-03-03T02:17:05;98479.81;;;2.37;47.50
21300;BME280;10809;49.476;11.016;2023-03-03T02:20:17;98472.94;;;2.33;47.46
21300;BME280;10809;49.476;11.016;2023-03-03T02:22:56;98467.78;;;2.30;47.58
21300;BME280;10809;49.476;11.016;2023-03-03T02:25:58;98473.09;;;2.25;47.46
21300;BME280;10809;49.476;11.016;2023-03-03T02:28:34;98476.66;;;2.21;47.55
21300;BME280;10809;49.476;11.016;2023-03-03T02:31:14;98477.56;;;2.19;47.68
21300;BME280;10809;49.476;11.016;2023-03-03T02:33:48;98475.03;;;2.16;47.82
21300;BME280;10809;49.476;11.016;2023-03-03T02:36:22;98478.56;;;2.13;47.99
21300;BME280;10809;49.476;11.016;2023-03-03T02:42:06;98472.56;;;2.08;47.99
21300;BME280;10809;49.476;11.016;2023-03-03T02:44:58;98469.13;;;2.06;48.31
21300;BME280;10809;49.476;11.016;2023-03-03T02:47:30;98472.66;;;2.04;47.75
21300;BME280;10809;49.476;11.016;2023-03-03T02:50:01;98475.28;;;2.02;47.99
21300;BME280;10809;49.476;11.016;2023-03-03T02:52:37;98472.75;;;1.99;48.02
21300;BME280;10809;49.476;11.016;2023-03-03T02:55:08;98473.63;;;1.97;48.08
21300;BME280;10809;49.476;11.016;2023-03-03T02:57:41;98483.25;;;1.96;48.18
21300;BME280;10809;49.476;11.016;2023-03-03T03:00:12;98475.47;;;1.93;48.00
21300;BME280;10809;49.476;11.016;2023-03-03T03:02:42;98478.97;;;1.91;48.06
21300;BME280;10809;49.476;11.016;2023-03-03T03:05:13;98482.50;;;1.90;48.20
21300;BME280;10809;49.476;11.016;2023-03-03T03:07:44;98481.66;;;1.88;48.34
21300;BME280;10809;49.476;11.016;2023-03-03T03:10:15;98480.84;;;1.86;47.88
21300;BME280;10809;49.476;11.016;2023-03-03T03:12:48;98482.59;;;1.84;48.09
21300;BME280;10809;49.476;11.016;2023-03-03T03:15:19;98484.38;;;1.82;48.26
21300;BME280;10809;49.476;11.016;2023-03-03T03:17:49;98482.66;;;1.81;48.29
21300;BME280;10809;49.476;11.016;2023-03-03T03:20:20;98479.22;;;1.77;48.31
21300;BME280;10809;49.476;11.016;2023-03-03T03:22:51;98487.97;;;1.76;48.51
21300;BME280;10809;49.476;11.016;2023-03-03T03:25:22;98499.31;;;1.75;48.29
21300;BME280;10809;49.476;11.016;2023-03-03T03:27:58;98493.22;;;1.73;48.35
21300;BME280;10809;49.476;11.016;2023-03-03T03:30:29;98501.97;;;1.72;48.54
21300;BME280;10809;49.476;11.016;2023-03-03T03:32:59;98500.25;;;1.70;48.18
21300;BME280;10809;49.476;11.016;2023-03-03T03:35:32;98489.00;;;1.68;48.34
21300;BME280;10809;49.476;11.016;2023-03-03T03:38:02;98493.34;;;1.67;48.54
21300;BME280;10809;49.476;11.016;2023-03-03T03:40:33;98492.50;;;1.65;48.69
21300;BME280;10809;49.476;11.016;2023-03-03T03:43:03;98489.91;;;1.64;48.78
21300;BME280;10809;49.476;11.016;2023-03-03T03:45:34;98490.84;;;1.61;48.80
21300;BME280;10809;49.476;11.016;2023-03-03T03:48:05;98495.19;;;1.61;48.48
21300;BME280;10809;49.476;11.016;2023-03-03T03:50:42;98500.44;;;1.59;48.61
21300;BME280;10809;49.476;11.016;2023-03-03T03:53:13;98500.44;;;1.59;48.68
21300;BME280;10809;49.476;11.016;2023-03-03T03:55:44;98503.06;;;1.58;48.42
21300;BME280;10809;49.476;11.016;2023-03-03T03:58:17;98504.03;;;1.54;48.66
21300;BME280;10809;49.476;11.016;2023-03-03T04:01:04;98499.66;;;1.53;48.97
21300;BME280;10809;49.476;11.016;2023-03-03T04:03:54;98497.97;;;1.50;48.42
21300;BME280;10809;49.476;11.016;2023-03-03T04:06:27;98496.28;;;1.49;48.26
21300;BME280;10809;49.476;11.016;2023-03-03T04:09:04;98496.28;;;1.48;48.21
21300;BME280;10809;49.476;11.016;2023-03-03T04:11:38;98491.13;;;1.45;48.75
21300;BME280;10809;49.476;11.016;2023-03-03T04:14:11;98492.88;;;1.43;48.82
21300;BME280;10809;49.476;11.016;2023-03-03T04:16:50;98500.75;;;1.41;48.56
21300;BME280;10809;49.476;11.016;2023-03-03T04:19:24;98494.66;;;1.41;48.83
21300;BME280;10809;49.476;11.016;2023-03-03T04:21:55;98492.09;;;1.38;48.78
21300;BME280;10809;49.476;11.016;2023-03-03T04:24:30;98495.59;;;1.37;49.08
21300;BME280;10809;49.476;11.016;2023-03-03T04:27:01;98504.34;;;1.34;48.74
21300;BME280;10809;49.476;11.016;2023-03-03T04:29:35;98510.44;;;1.33;49.13
21300;BME280;10809;49.476;11.016;2023-03-03T04:32:07;98513.06;;;1.32;48.84
21300;BME280;10809;49.476;11.016;2023-03-03T04:34:51;98509.63;;;1.30;48.83
21300;BME280;10809;49.476;11.016;2023-03-03T04:37:28;98512.28;;;1.28;49.24
21300;BME280;10809;49.476;11.016;2023-03-03T04:40:17;98519.25;;;1.26;48.72
21300;BME280;10809;49.476;11.016;2023-03-03T04:42:49;98520.97;;;1.26;48.90
21300;BME280;10809;49.476;11.016;2023-03-03T04:45:20;98506.22;;;1.25;48.71
21300;BME280;10809;49.476;11.016;2023-03-03T04:47:54;98510.59;;;1.23;48.94
21300;BME280;10809;49.476;11.016;2023-03-03T04:50:32;98513.22;;;1.21;49.21
21300;BME280;10809;49.476;11.016;2023-03-03T04:53:07;98515.00;;;1.21;48.51
21300;BME280;10809;49.476;11.016;2023-03-03T04:55:37;98514.16;;;1.19;49.00
21300;BME280;10809;49.476;11.016;2023-03-03T04:58:09;98511.59;;;1.16;49.04
21300;BME280;10809;49.476;11.016;2023-03-03T05:00:40;98515.94;;;1.14;49.37
21300;BME280;10809;49.476;11.016;2023-03-03T05:03:12;98522.06;;;1.13;49.40
21300;BME280;10809;49.476;11.016;2023-03-03T05:05:45;98521.22;;;1.11;49.27
21300;BME280;10809;49.476;11.016;2023-03-03T05:08:28;98525.56;;;1.09;49.37
21300;BME280;10809;49.476;11.016;2023-03-03T05:10:59;98517.78;;;1.07;49.26
21300;BME280;10809;49.476;11.016;2023-03-03T05:13:36;98523.03;;;1.04;49.26
21300;BME280;10809;49.476;11.016;2023-03-03T05:16:07;98530.03;;;1.04;49.29
21300;BME280;10809;49.476;11.016;2023-03-03T05:18:38;98526.56;;;1.02;49.05
21300;BME280;10809;49.476;11.016;2023-03-03T05:21:08;98523.09;;;1.00;49.09
21300;BME280;10809;49.476;11.016;2023-03-03T05:23:39;98530.91;;;1.00;49.57
21300;BME280;10809;49.476;11.016;2023-03-03T05:26:09;98521.41;;;0.97;49.66
21300;BME280;10809;49.476;11.016;2023-03-03T05:28:39;98525.75;;;0.97;49.82
21300;BME280;10809;49.476;11.016;2023-03-03T05:31:10;98535.34;;;0.95;49.51
21300;BME280;10809;49.476;11.016;2023-03-03T05:33:40;98536.22;;;0.94;49.54
21300;BME280;10809;49.476;11.016;2023-03-03T05:36:11;98530.19;;;0.92;49.75
21300;BME280;10809;49.476;11.016;2023-03-03T05:38:41;98532.84;;;0.89;49.58
21300;BME280;10809;49.476;11.016;2023-03-03T05:41:13;98536.31;;;0.86;49.59
21300;BME280;10809;49.476;11.016;2023-03-03T05:43:44;98537.25;;;0.84;49.55
21300;BME280;10809;49.476;11.016;2023-03-03T05:46:14;98545.09;;;0.82;49.17
21300;BME280;10809;49.476;11.016;2023-03-03T05:48:47;98549.44;;;0.80;49.60
21300;BME280;10809;49.476;11.016;2023-03-03T05:51:21;98539.94;;;0.78;49.41
21300;BME280;10809;49.476;11.016;2023-03-03T05:53:51;98546.03;;;0.77;49.94
21300;BME280;10809;49.476;11.016;2023-03-03T05:56:28;98543.47;;;0.74;49.92
21300;BME280;10809;49.476;11.016;2023-03-03T05:58:58;98549.53;;;0.72;49.65
21300;BME280;10809;49.476;11.016;2023-03-03T06:01:31;98559.97;;;0.71;49.89
21300;BME280;10809;49.476;11.016;2023-03-03T06:04:02;98566.97;;;0.69;50.15
21300;BME280;10809;49.476;11.016;2023-03-03T06:06:33;98571.31;;;0.68;49.99
21300;BME280;10809;49.476;11.016;2023-03-03T06:09:03;98562.66;;;0.66;49.86
21300;BME280;10809;49.476;11.016;2023-03-03T06:11:33;98567.84;;;0.66;50.02
21300;BME280;10809;49.476;11.016;2023-03-03T06:14:04;98571.34;;;0.67;49.85
21300;BME280;10809;49.476;11.016;2023-03-03T06:16:34;98573.97;;;0.65;49.94
21300;BME280;10809;49.476;11.016;2023-03-03T06:19:04;98571.34;;;0.65;50.02
21300;BME280;10809;49.476;11.016;2023-03-03T06:21:38;98569.63;;;0.64;49.67
21300;BME280;10809;49.476;11.016;2023-03-03T06:24:08;98573.97;;;0.64;50.07
21300;BME280;10809;49.476;11.016;2023-03-03T06:26:42;98576.59;;;0.62;50.13
21300;BME280;10809;49.476;11.016;2023-03-03T06:29:18;98587.03;;;0.62;50.46
21300;BME280;10809;49.476;11.016;2023-03-03T06:31:48;98593.94;;;0.63;50.47
21300;BME280;10809;49.476;11.016;2023-03-03T06:34:19;98595.72;;;0.63;50.13
21300;BME280;10809;49.476;11.016;2023-03-03T06:36:49;98604.38;;;0.63;50.78
21300;BME280;10809;49.476;11.016;2023-03-03T06:39:35;98603.50;;;0.66;50.16
21300;BME280;10809;49.476;11.016;2023-03-03T06:42:05;98604.34;;;0.66;50.55
21300;BME280;10809;49.476;11.016;2023-03-03T06:44:39;98606.06;;;0.69;50.78
21300;BME280;10809;49.476;11.016;2023-03-03T06:47:09;98606.00;;;0.74;50.80
21300;BME280;10809;49.476;11.016;2023-03-03T06:49:46;98611.16;;;0.78;50.70
21300;BME280;10809;49.476;11.016;2023-03-03T06:52:19;98613.72;;;0.81;51.15
21300;BME280;10809;49.476;11.016;2023-03-03T06:55:00;98614.50;;;0.86;51.04
21300;BME280;10809;49.476;11.016;2023-03-03T06:57:32;98614.44;;;0.92;51.05
21300;BME280;10809;49.476;11.016;2023-03-03T07:00:23;98610.88;;;0.99;50.67
21300;BME280;10809;49.476;11.016;2023-03-03T07:03:33;98610.81;;;1.05;51.04
21300;BME280;10809;49.476;11.016;2023-03-03T07:06:22;98622.00;;;1.13;50.92
21300;BME280;10809;49.476;11.016;2023-03-03T07:08:56;98629.78;;;1.18;50.86
21300;BME280;10809;49.476;11.016;2023-03-03T07:11:33;98619.28;;;1.22;50.74
21300;BME280;10809;49.476;11.016;2023-03-03T07:14:14;98629.66;;;1.27;50.78
21300;BME280;10809;49.476;11.016;2023-03-03T07:16:45;98633.03;;;1.32;50.94
21300;BME280;10809;49.476;11.016;2023-03-03T07:19:19;98636.47;;;1.35;51.15
21300;BME280;10809;49.476;11.016;2023-03-03T07:21:50;98639.88;;;1.42;51.68
21300;BME280;10809;49.476;11.016;2023-03-03T07:24:28;98633.69;;;1.47;51.25
21300;BME280;10809;49.476;11.016;2023-03-03T07:29:41;98639.56;;;1.63;51.96
21300;BME280;10809;49.476;11.016;2023-03-03T07:32:34;98648.91;;;1.76;51.71
21300;BME280;10809;49.476;11.016;2023-03-03T07:37:54;98651.13;;;2.00;51.62
21300;BME280;10809;49.476;11.016;2023-03-03T07:40:53;98647.41;;;2.16;52.15
21300;BME280;10809;49.476;11.016;2023-03-03T07:43:36;98646.91;;;2.43;52.57
21300;BME280;10809;49.476;11.016;2023-03-03T07:49:31;98649.03;;;3.14;52.90
21300;BME280;10809;49.476;11.016;2023-03-03T07:54:58;98648.84;;;3.99;54.72
21300;BME280;10809;49.476;11.016;2023-03-03T07:57:36;98644.34;;;4.40;54.15
21300;BME280;10809;49.476;11.016;2023-03-03T08:03:02;98657.78;;;5.24;53.57
21300;BME280;10809;49.476;11.016;2023-03-03T08:05:41;98653.19;;;5.61;53.28
21300;BME280;10809;49.476;11.016;2023-03-03T08:08:34;98653.84;;;5.95;52.37
21300;BME280;10809;49.476;11.016;2023-03-03T08:11:12;98649.38;;;6.25;52.02
21300;BME280;10809;49.476;11.016;2023-03-03T08:14:11;98651.19;;;6.49;51.61
21300;BME280;10809;49.476;11.016;2023-03-03T08:16:47;98646.38;;;6.61;50.52
21300;BME280;10809;49.476;11.016;2023-03-03T08:19:21;98655.94;;;6.64;49.60
21300;BME280;10809;49.476;11.016;2023-03-03T08:21:55;98653.28;;;6.64;49.86
21300;BME280;10809;49.476;11.016;2023-03-03T08:24:29;98646.16;;;6.67;50.21
21300;BME280;10809;49.476;11.016;2023-03-03T08:26:59;98655.56;;;6.74;50.01
21300;BME280;10809;49.476;11.016;2023-03-03T08:29:29;98642.41;;;6.74;49.14
21300;BME280;10809;49.476;11.016;2023-03-03T08:32:00;98654.06;;;6.67;48.91
21300;BME280;10809;49.476;11.016;2023-03-03T08:34:33;98661.41;;;6.58;48.48
21300;BME280;10809;49.476;11.016;2023-03-03T08:37:03;98660.06;;;6.46;48.51
21300;BME280;10809;49.476;11.016;2023-03-03T08:39:34;98659.66;;;6.32;48.06
21300;BME280;10809;49.476;11.016;2023-03-03T08:42:04;98677.59;;;6.20;48.61
21300;BME280;10809;49.476;11.016;2023-03-03T08:44:35;98671.75;;;6.10;48.98
21300;BME280;10809;49.476;11.016;2023-03-03T08:47:05;98671.00;;;6.07;49.02
21300;BME280;10809;49.476;11.016;2023-03-03T08:49:35;98663.91;;;6.08;49.32
21300;BME280;10809;49.476;11.016;2023-03-03T08:52:06;98666.50;;;6.10;49.48
21300;BME280;10809;49.476;11.016;2023-03-03T08:54:42;98671.59;;;6.15;49.22
21300;BME280;10809;49.476;11.016;2023-03-03T08:57:13;98661.97;;;6.15;49.30
21300;BME280;10809;49.476;11.016;2023-03-03T08:59:49;98658.41;;;6.16;49.12
21300;BME280;10809;49.476;11.016;2023-03-03T09:02:19;98644.31;;;6.19;49.32
21300;BME280;10809;49.476;11.016;2023-03-03T09:04:50;98655.53;;;6.24;49.38
21300;BME280;10809;49.476;11.016;2023-03-03T09:07:20;98657.13;;;6.29;49.35
21300;BME280;10809;49.476;11.016;2023-03-03T09:09:50;98658.63;;;6.36;49.03
21300;BME280;10809;49.476;11.016;2023-03-03T09:12:44;98655.72;;;6.44;49.17
21300;BME280;10809;49.476;11.016;2023-03-03T09:15:29;98653.81;;;6.49;48.91
21300;BME280;10809;49.476;11.016;2023-03-03T09:20:54;98651.97;;;6.52;48.56
21300;BME280;10809;49.476;11.016;2023-03-03T09:26:21;98656.25;;;6.55;48.19
21300;BME280;10809;49.476;11.016;2023-03-03T09:29:15;98653.72;;;6.52;47.89
21300;BME280;10809;49.476;11.016;2023-03-03T09:31:45;98659.03;;;6.50;47.89
21300;BME280;10809;49.476;11.016;2023-03-03T09:34:37;98657.38;;;6.48;47.96
21300;BME280;10809;49.476;11.016;2023-03-03T09:37:32;98657.38;;;6.48;47.84
21300;BME280;10809;49.476;11.016;2023-03-03T09:40:34;98661.81;;;6.46;47.61
21300;BME280;10809;49.476;11.016;2023-03-03T09:43:12;98662.78;;;6.43;47.42
21300;BME280;10809;49.476;11.016;2023-03-03T09:46:12;98668.25;;;6.37;47.04
21300;BME280;10809;49.476;11.016;2023-03-03T09:49:22;98670.16;;;6.32;47.72
21300;BME280;10809;49.476;11.016;2023-03-03T10:02:30;98668.72;;;6.48;47.95
21300;BME280;10809;49.476;11.016;2023-03-03T10:05:18;98678.16;;;6.55;47.54
21300;BME280;10809;49.476;11.016;2023-03-03T10:11:28;98679.72;;;6.61;47.57
21300;BME280;10809;49.476;11.016;2023-03-03T10:14:25;98672.59;;;6.64;47.60
21300;BME280;10809;49.476;11.016;2023-03-03T10:17:21;98674.09;;;6.71;47.89
21300;BME280;10809;49.476;11.016;2023-03-03T10:20:20;98671.19;;;6.79;47.61
21300;BME280;10809;49.476;11.016;2023-03-03T10:23:09;98664.81;;;6.86;47.56
21300;BME280;10809;49.476;11.016;2023-03-03T10:26:09;98668.00;;;6.94;47.60
21300;BME280;10809;49.476;11.016;2023-03-03T10:43:09;98661.75;;;7.45;47.47
21300;BME280;10809;49.476;11.016;2023-03-03T10:49:19;98658.47;;;7.62;47.77
21300;BME280;10809;49.476;11.016;2023-03-03T10:52:17;98665.19;;;7.70;47.42
21300;BME280;10809;49.476;11.016;2023-03-03T10:55:16;98660.50;;;7.77;47.03
21300;BME280;10809;49.476;11.016;2023-03-03T11:01:17;98657.50;;;7.88;47.00
21300;BME280;10809;49.476;11.016;2023-03-03T11:13:25;98655.97;;;8.04;47.03
21300;BME280;10809;49.476;11.016;2023-03-03T11:16:49;98661.03;;;8.08;46.77
21300;BME280;10809;49.476;11.016;2023-03-03T11:22:38;98648.28;;;8.19;46.60
21300;BME280;10809;49.476;11.016;2023-03-03T11:25:39;98649.00;;;8.23;46.81
21300;BME280;10809;49.476;11.016;2023-03-03T11:28:43;98653.19;;;8.28;46.70
21300;BME280;10809;49.476;11.016;2023-03-03T11:31:25;98647.72;;;8.33;46.34
21300;BME280;10809;49.476;11.016;2023-03-03T11:34:15;98649.25;;;8.38;46.49
21300;BME280;10809;49.476;11.016;2023-03-03T11:36:56;98645.56;;;8.42;46.34
21300;BME280;10809;49.476;11.016;2023-03-03T11:39:31;98637.47;;;8.47;46.52
21300;BME280;10809;49.476;11.016;2023-03-03T11:42:27;98634.63;;;8.51;46.23
21300;BME280;10809;49.476;11.016;2023-03-03T11:45:16;98645.00;;;8.56;46.33
21300;BME280;10809;49.476;11.016;2023-03-03T11:48:13;98641.28;;;8.60;46.03
21300;BME280;10809;49.476;11.016;2023-03-03T11:50:57;98638.50;;;8.64;46.04
21300;BME280;10809;49.476;11.016;2023-03-03T11:53:58;98628.66;;;8.68;46.29
21300;BME280;10809;49.476;11.016;2023-03-03T11:56:34;98624.91;;;8.73;45.91
21300;BME280;10809;49.476;11.016;2023-03-03T11:59:34;98627.28;;;8.79;45.85
21300;BME280;10809;49.476;11.016;2023-03-03T12:02:19;98629.66;;;8.85;46.08
21300;BME280;10809;49.476;11.016;2023-03-03T12:04:59;98624.09;;;8.91;45.54
21300;BME280;10809;49.476;11.016;2023-03-03T12:13:49;98610.00;;;9.11;45.85
21300;BME280;10809;49.476;11.016;2023-03-03T12:17:00;98609.72;;;9.17;45.82
21300;BME280;10809;49.476;11.016;2023-03-03T12:45:36;98565.47;;;9.59;44.96
21300;BME280;10809;49.476;11.016;2023-03-03T12:48:21;98563.38;;;9.66;44.57
21300;BME280;10809;49.476;11.016;2023-03-03T12:51:00;98564.81;;;9.73;44.75
21300;BME280;10809;49.476;11.016;2023-03-03T13:00:26;98561.28;;;9.91;44.06
21300;BME280;10809;49.476;11.016;2023-03-03T13:15:19;98558.78;;;10.06;43.77
21300;BME280;10809;49.476;11.016;2023-03-03T13:18:29;98542.69;;;10.11;43.65
21300;BME280;10809;49.476;11.016;2023-03-03T13:24:14;98545.84;;;10.17;43.19
21300;BME280;10809;49.476;11.016;2023-03-03T13:29:57;98545.38;;;10.26;43.81
21300;BME280;10809;49.476;11.016;2023-03-03T13:38:30;98537.53;;;10.42;42.99
21300;BME280;10809;49.476;11.016;2023-03-03T13:41:16;98540.88;;;10.45;42.43
21300;BME280;10809;49.476;11.016;2023-03-03T13:43:59;98538.88;;;10.50;42.57
21300;BME280;10809;49.476;11.016;2023-03-03T13:46:42;98533.41;;;10.53;41.93
21300;BME280;10809;49.476;11.016;2023-03-03T13:52:11;98527.72;;;10.61;41.99
21300;BME280;10809;49.476;11.016;2023-03-03T13:54:55;98525.81;;;10.63;42.07
21300;BME280;10809;49.476;11.016;2023-03-03T14:00:50;98514.91;;;10.69;42.31
21300;BME280;10809;49.476;11.016;2023-03-03T14:03:43;98512.88;;;10.74;42.28
21300;BME280;10809;49.476;11.016;2023-03-03T14:06:19;98519.72;;;10.78;41.92
21300;BME280;10809;49.476;11.016;2023-03-03T14:11:54;98518.31;;;10.88;42.23
21300;BME280;10809;49.476;11.016;2023-03-03T14:20:27;98514.34;;;11.12;42.72
21300;BME280;10809;49.476;11.016;2023-03-03T14:23:02;98516.47;;;11.21;42.20
21300;BME280;10809;49.476;11.016;2023-03-03T14:25:57;98512.66;;;11.26;42.14
21300;BME280;10809;49.476;11.016;2023-03-03T14:28:44;98516.00;;;11.30;42.31
21300;BME280;10809;49.476;11.016;2023-03-03T14:31:24;98505.31;;;11.32;41.78
21300;BME280;10809;49.476;11.016;2023-03-03T14:49:00;98510.31;;;11.20;41.49
21300;BME280;10809;49.476;11.016;2023-03-03T14:51:38;98500.84;;;11.16;41.58
21300;BME280;10809;49.476;11.016;2023-03-03T14:54:43;98502.78;;;11.13;41.65
21300;BME280;10809;49.476;11.016;2023-03-03T15:05:25;98503.09;;;11.24;41.83
21300;BME280;10809;49.476;11.016;2023-03-03T15:10:45;98500.72;;;11.35;41.51
21300;BME280;10809;49.476;11.016;2023-03-03T15:18:30;98499.06;;;11.32;40.67
21300;BME280;10809;49.476;11.016;2023-03-03T15:21:09;98496.69;;;11.28;40.77
21300;BME280;10809;49.476;11.016;2023-03-03T15:29:39;98504.16;;;11.04;40.85
21300;BME280;10809;49.476;11.016;2023-03-03T15:35:13;98504.03;;;10.90;40.61
21300;BME280;10809;49.476;11.016;2023-03-03T15:38:02;98501.88;;;10.81;41.02
21300;BME280;10809;49.476;11.016;2023-03-03T15:40:50;98498.63;;;10.76;40.88
21300;BME280;10809;49.476;11.016;2023-03-03T15:49:39;98494.22;;;10.60;41.03
21300;BME280;10809;49.476;11.016;2023-03-03T15:55:00;98504.44;;;10.50;40.77
21300;BME280;10809;49.476;11.016;2023-03-03T16:00:52;98495.41;;;10.37;41.31
21300;BME280;10809;49.476;11.016;2023-03-03T16:03:37;98500.09;;;10.32;41.36
21300;BME280;10809;49.476;11.016;2023-03-03T16:06:14;98504.84;;;10.26;41.06
21300;BME280;10809;49.476;11.016;2023-03-03T16:09:01;98516.59;;;10.20;41.38
21300;BME280;10809;49.476;11.016;2023-03-03T16:11:33;98519.53;;;10.14;40.98
21300;BME280;10809;49.476;11.016;2023-03-03T16:14:38;98518.22;;;10.06;41.35
21300;BME280;10809;49.476;11.016;2023-03-03T16:20:26;98528.53;;;9.93;41.31
21300;BME280;10809;49.476;11.016;2023-03-03T16:32:04;98533.69;;;9.61;41.39
21300;BME280;10809;49.476;11.016;2023-03-03T16:34:44;98536.69;;;9.53;41.07
21300;BME280;10809;49.476;11.016;2023-03-03T16:40:22;98551.53;;;9.37;41.14
21300;BME280;10809;49.476;11.016;2023-03-03T16:43:04;98558.91;;;9.30;41.54
21300;BME280;10809;49.476;11.016;2023-03-03T16:45:37;98550.41;;;9.24;41.40
21300;BME280;10809;49.476;11.016;2023-03-03T16:48:21;98559.47;;;9.18;41.62
21300;BME280;10809;49.476;11.016;2023-03-03T16:51:22;98561.63;;;9.10;41.34
21300;BME280;10809;49.476;11.016;2023-03-03T16:54:17;98559.25;;;9.04;41.28
21300;BME280;10809;49.476;11.016;2023-03-03T16:59:52;98580.94;;;8.92;41.15
21300;BME280;10809;49.476;11.016;2023-03-03T17:05:40;98586.03;;;8.77;40.86
21300;BME280;10809;49.476;11.016;2023-03-03T17:08:32;98590.72;;;8.70;41.00
21300;BME280;10809;49.476;11.016;2023-03-03T17:14:02;98586.88;;;8.57;41.30
21300;BME280;10809;49.476;11.016;2023-03-03T17:16:58;98589.84;;;8.50;41.16
21300;BME280;10809;49.476;11.016;2023-03-03T17:19:52;98594.44;;;8.45;41.28
21300;BME280;10809;49.476;11.016;2023-03-03T17:22:46;98597.34;;;8.39;41.39
21300;BME280;10809;49.476;11.016;2023-03-03T17:25:42;98603.75;;;8.33;40.97
21300;BME280;10809;49.476;11.016;2023-03-03T17:31:31;98616.50;;;8.22;40.88
21300;BME280;10809;49.476;11.016;2023-03-03T17:42:27;98631.41;;;8.02;40.93
21300;BME280;10809;49.476;11.016;2023-03-03T17:45:13;98630.81;;;7.95;40.81
21300;BME280;10809;49.476;11.016;2023-03-03T17:50:51;98638.22;;;7.86;41.05
21300;BME280;10809;49.476;11.016;2023-03-03T17:53:54;98641.03;;;7.81;41.31
21300;BME280;10809;49.476;11.016;2023-03-03T18:19:44;98660.97;;;7.43;41.19
21300;BME280;10809;49.476;11.016;2023-03-03T18:25:00;98670.88;;;7.37;41.33
21300;BME280;10809;49.476;11.016;2023-03-03T18:27:37;98664.06;;;7.31;41.10
21300;BME280;10809;49.476;11.016;2023-03-03T18:43:48;98668.44;;;7.08;41.76